KBIH

Bishop Airport

Bishop, California, USA
METAR KBIH 160556Z AUTO VRB04KT 10SM FEW120 22/06 A3004 RMK AO2 SLP119 T02220061 10333 20222 51021
Observed Flight Rules
Aug-16 @ 05:56 UTC (20 minutes ago) Visual Flight Rules
Wind Visibility Clouds
Variable at 4 knots 10 miles
  • Few at 12,000' AGL
Temperatures Readings
Current 22°C / 72°F
Dewpoint 6°C / 43°F
Humidity 36%
Altimeter 30.04" Hg
Pressure 1011.9 hPa
Elevation 1253
METAR KBIH 160556Z AUTO VRB04KT 10SM FEW120 22/06 A3004 RMK AO2 SLP119 T02220061 10333 20222 51021
Observed Flight Rules
Aug-16 @ 05:56 UTC
(20 minutes ago)
VFR
Wind Visibility
Variable at 4 knots 10 miles
Clouds
  • Few at 12,000' AGL
Temperature Dewpoint
22°C / 72°F 6°C / 43°F
Humidity Altimeter Pressure
36% 30.04" Hg 1011.9 hPa